createdAt,value
2019-03-20T00:00:40.712Z,-0.20
2019-03-20T00:03:09.148Z,-0.20
2019-03-20T00:05:37.620Z,-0.20
2019-03-20T00:08:06.140Z,-0.30
2019-03-20T00:10:34.784Z,-0.30
2019-03-20T00:13:03.246Z,-0.40
2019-03-20T00:18:23.567Z,-0.40
2019-03-20T00:20:52.131Z,-0.40
2019-03-20T00:23:20.625Z,-0.40
2019-03-20T00:25:49.096Z,-0.40
2019-03-20T00:28:17.605Z,-0.50
2019-03-20T00:30:46.093Z,-0.60
2019-03-20T00:33:14.596Z,-0.60
2019-03-20T00:35:43.068Z,-0.60
2019-03-20T00:38:11.581Z,-0.70
2019-03-20T00:40:40.087Z,-0.70
2019-03-20T00:43:08.548Z,-0.70
2019-03-20T00:45:37.032Z,-0.80
2019-03-20T00:48:05.684Z,-0.80
2019-03-20T00:50:34.521Z,-0.80
2019-03-20T00:53:03.017Z,-0.90
2019-03-20T00:55:31.550Z,-0.90
2019-03-20T00:58:00.082Z,-0.90
2019-03-20T01:00:28.610Z,-0.90
2019-03-20T01:02:57.068Z,-0.90
2019-03-20T01:05:25.502Z,-1.00
2019-03-20T01:07:53.948Z,-1.10
2019-03-20T01:10:23.647Z,-1.10
2019-03-20T01:12:52.143Z,-1.10
2019-03-20T01:15:20.824Z,-1.20
2019-03-20T01:17:49.463Z,-1.20
2019-03-20T01:20:22.467Z,-1.20
2019-03-20T01:22:51.087Z,-1.30
2019-03-20T01:25:19.695Z,-1.30
2019-03-20T01:27:48.242Z,-1.30
2019-03-20T01:30:38.124Z,-1.40
2019-03-20T01:33:14.180Z,-1.40
2019-03-20T01:35:42.989Z,-1.40
2019-03-20T01:38:11.638Z,-1.40
2019-03-20T01:40:40.965Z,-1.40
2019-03-20T01:43:09.700Z,-1.40
2019-03-20T01:45:38.260Z,-1.40
2019-03-20T01:48:06.754Z,-1.40
2019-03-20T01:50:35.300Z,-1.40
2019-03-20T01:53:03.830Z,-1.40
2019-03-20T01:55:32.407Z,-1.40
2019-03-20T01:58:00.878Z,-1.40
2019-03-20T02:00:29.353Z,-1.40
2019-03-20T02:02:57.921Z,-1.50
2019-03-20T02:05:35.924Z,-1.50
2019-03-20T02:07:59.263Z,-1.50
2019-03-20T02:10:27.688Z,-1.60
2019-03-20T02:12:58.544Z,-1.60
2019-03-20T02:15:38.214Z,-1.60
2019-03-20T02:17:59.448Z,-1.60
2019-03-20T02:20:27.955Z,-1.70
2019-03-20T02:22:57.447Z,-1.70
2019-03-20T02:25:50.129Z,-1.70
2019-03-20T02:28:18.802Z,-1.70
2019-03-20T02:30:47.249Z,-1.70
2019-03-20T02:33:15.717Z,-1.70
2019-03-20T02:35:51.218Z,-1.70
2019-03-20T02:38:15.625Z,-1.70
2019-03-20T02:40:44.721Z,-1.70
2019-03-20T02:43:24.751Z,-1.70
2019-03-20T02:45:53.219Z,-1.70
2019-03-20T02:48:21.640Z,-1.70
2019-03-20T02:50:50.168Z,-1.70
2019-03-20T02:53:18.670Z,-1.60
2019-03-20T02:55:47.177Z,-1.70
2019-03-20T02:58:16.935Z,-1.70
2019-03-20T03:00:46.334Z,-1.70
2019-03-20T03:03:16.107Z,-1.70
2019-03-20T03:05:45.032Z,-1.70
2019-03-20T03:08:15.716Z,-1.70
2019-03-20T03:10:46.382Z,-1.80
2019-03-20T03:13:15.566Z,-1.80
2019-03-20T03:15:48.597Z,-1.90
2019-03-20T03:18:17.127Z,-1.90
2019-03-20T03:20:45.624Z,-2.00
2019-03-20T03:23:16.640Z,-2.00
2019-03-20T03:25:46.048Z,-1.90
2019-03-20T03:28:18.633Z,-1.90
2019-03-20T03:30:49.735Z,-1.90
2019-03-20T03:33:18.177Z,-1.90
2019-03-20T03:36:04.660Z,-1.90
2019-03-20T03:38:44.667Z,-1.90
2019-03-20T03:41:14.309Z,-2.00
2019-03-20T03:43:44.021Z,-2.00
2019-03-20T03:46:15.334Z,-2.00
2019-03-20T03:48:44.923Z,-2.00
2019-03-20T03:51:14.727Z,-2.00
2019-03-20T03:53:45.910Z,-2.10
2019-03-20T03:56:14.731Z,-2.10
2019-03-20T03:58:44.118Z,-2.10
2019-03-20T04:01:13.922Z,-2.10
2019-03-20T04:07:41.256Z,-2.00
2019-03-20T04:10:15.427Z,-2.00
2019-03-20T04:12:45.245Z,-2.00
2019-03-20T04:15:16.045Z,-2.00
2019-03-20T04:17:46.038Z,-2.00
2019-03-20T04:20:20.576Z,-2.10
2019-03-20T04:22:49.099Z,-2.10
2019-03-20T04:25:17.692Z,-2.20
2019-03-20T04:27:52.192Z,-2.20
2019-03-20T04:30:41.565Z,-2.20
2019-03-20T04:33:10.083Z,-2.20
2019-03-20T04:35:41.258Z,-2.20
2019-03-20T04:38:09.921Z,-2.20
2019-03-20T04:40:38.515Z,-2.30
2019-03-20T04:43:07.259Z,-2.20
2019-03-20T04:45:38.583Z,-2.30
2019-03-20T04:48:07.114Z,-2.30
2019-03-20T04:50:38.472Z,-2.30
2019-03-20T04:53:06.959Z,-2.30
2019-03-20T04:55:38.585Z,-2.30
2019-03-20T04:58:07.085Z,-2.40
2019-03-20T05:00:38.747Z,-2.40
2019-03-20T05:03:07.271Z,-2.40
2019-03-20T05:05:37.127Z,-2.30
2019-03-20T05:08:05.621Z,-2.30
2019-03-20T05:10:36.726Z,-2.30
2019-03-20T05:13:05.276Z,-2.40
2019-03-20T05:15:34.390Z,-2.40
2019-03-20T05:18:02.856Z,-2.40
2019-03-20T05:20:33.965Z,-2.40
2019-03-20T05:23:09.517Z,-2.40
2019-03-20T05:25:39.214Z,-2.40
2019-03-20T05:28:07.668Z,-2.30
2019-03-20T05:30:36.133Z,-2.30
2019-03-20T05:33:04.654Z,-2.30
2019-03-20T05:35:36.025Z,-2.30
2019-03-20T05:38:04.511Z,-2.30
2019-03-20T05:40:33.068Z,-2.30
2019-03-20T05:43:01.677Z,-2.30
2019-03-20T05:45:31.247Z,-2.30
2019-03-20T05:48:00.294Z,-2.20
2019-03-20T05:50:31.746Z,-2.20
2019-03-20T05:53:00.250Z,-2.20
2019-03-20T05:55:29.942Z,-2.20
2019-03-20T05:57:58.482Z,-2.20
2019-03-20T06:00:31.468Z,-2.20
2019-03-20T06:03:00.021Z,-2.10
2019-03-20T06:05:30.552Z,-2.10
2019-03-20T06:07:59.104Z,-2.10
2019-03-20T06:10:27.947Z,-2.00
2019-03-20T06:12:56.490Z,-2.00
2019-03-20T06:15:24.953Z,-2.00
2019-03-20T06:17:53.595Z,-1.90
2019-03-20T06:20:22.092Z,-1.90
2019-03-20T06:22:50.635Z,-1.80
2019-03-20T06:25:21.821Z,-1.80
2019-03-20T06:27:50.356Z,-1.70
2019-03-20T06:30:21.133Z,-1.60
2019-03-20T06:32:50.150Z,-1.60
2019-03-20T06:35:21.891Z,-1.50
2019-03-20T06:37:50.463Z,-1.40
2019-03-20T06:40:19.090Z,-1.20
2019-03-20T06:42:47.660Z,-0.90
2019-03-20T06:45:19.417Z,-0.50
2019-03-20T06:47:47.979Z,0.20
2019-03-20T06:50:23.413Z,0.40
2019-03-20T06:52:51.976Z,0.60
2019-03-20T06:55:24.445Z,1.10
2019-03-20T06:58:12.299Z,1.70
2019-03-20T07:00:51.546Z,1.90
2019-03-20T07:03:47.400Z,2.00
2019-03-20T07:06:24.869Z,2.10
2019-03-20T07:09:11.485Z,2.10
2019-03-20T07:11:39.948Z,2.10
2019-03-20T07:14:11.333Z,2.10
2019-03-20T07:16:39.761Z,2.70
2019-03-20T07:19:09.609Z,3.30
2019-03-20T07:21:38.068Z,3.90
2019-03-20T07:24:09.233Z,4.20
2019-03-20T07:26:37.689Z,4.40
2019-03-20T07:29:08.784Z,4.20
2019-03-20T07:31:37.283Z,4.40
2019-03-20T07:34:05.796Z,4.10
2019-03-20T07:36:34.345Z,4.90
2019-03-20T07:39:03.327Z,4.90
2019-03-20T07:41:31.771Z,4.90
2019-03-20T07:44:03.134Z,4.90
2019-03-20T07:46:31.649Z,5.50
2019-03-20T07:49:01.270Z,5.40
2019-03-20T07:51:29.711Z,5.80
2019-03-20T07:54:01.052Z,6.20
2019-03-20T07:56:29.558Z,6.30
2019-03-20T07:59:00.689Z,6.50
2019-03-20T08:01:29.166Z,6.50
2019-03-20T08:04:00.645Z,6.10
2019-03-20T08:06:29.090Z,5.80
2019-03-20T08:08:59.107Z,5.50
2019-03-20T08:11:27.587Z,5.10
2019-03-20T08:13:59.016Z,5.70
2019-03-20T08:16:27.465Z,6.20
2019-03-20T08:18:56.966Z,5.80
2019-03-20T08:21:25.451Z,5.30
2019-03-20T08:23:56.583Z,5.30
2019-03-20T08:26:25.036Z,5.90
2019-03-20T08:28:53.471Z,6.30
2019-03-20T08:31:21.917Z,6.20
2019-03-20T08:33:50.530Z,7.00
2019-03-20T08:36:18.977Z,7.30
2019-03-20T08:38:50.238Z,7.10
2019-03-20T08:41:18.751Z,7.20
2019-03-20T08:43:49.044Z,7.80
2019-03-20T08:46:17.541Z,8.30
2019-03-20T08:48:48.370Z,8.20
2019-03-20T08:51:17.119Z,7.60
2019-03-20T08:53:46.838Z,7.80
2019-03-20T08:56:15.299Z,8.30
2019-03-20T08:58:46.477Z,8.60
2019-03-20T09:01:14.955Z,9.10
2019-03-20T09:03:46.358Z,9.00
2019-03-20T09:06:14.888Z,9.60
2019-03-20T09:08:43.311Z,10.20
2019-03-20T09:11:11.775Z,11.40
2019-03-20T09:13:42.891Z,10.70
2019-03-20T09:16:11.406Z,10.10
2019-03-20T09:18:39.903Z,10.30
2019-03-20T09:21:08.326Z,11.00
2019-03-20T09:23:36.813Z,11.20
2019-03-20T09:26:05.441Z,11.50
2019-03-20T09:28:33.884Z,11.40
2019-03-20T09:31:02.323Z,11.40
2019-03-20T09:33:30.811Z,11.70
2019-03-20T09:35:59.228Z,11.10
2019-03-20T09:38:29.160Z,11.10
2019-03-20T09:40:57.591Z,11.70
2019-03-20T09:43:28.798Z,12.40
2019-03-20T09:45:57.265Z,12.70
2019-03-20T09:48:27.146Z,12.70
2019-03-20T09:50:55.593Z,12.70
2019-03-20T09:53:24.115Z,12.70
2019-03-20T09:55:52.624Z,12.30
2019-03-20T09:58:23.746Z,12.50
2019-03-20T10:00:52.212Z,12.70
2019-03-20T10:03:22.250Z,12.80
2019-03-20T10:05:50.701Z,13.00
2019-03-20T10:08:21.819Z,12.70
2019-03-20T10:10:50.337Z,13.00
2019-03-20T10:13:21.607Z,12.50
2019-03-20T10:15:50.092Z,11.80
2019-03-20T10:18:21.270Z,11.50
2019-03-20T10:20:49.713Z,11.60
2019-03-20T10:23:18.174Z,11.90
2019-03-20T10:25:46.600Z,12.90
2019-03-20T10:28:15.059Z,12.90
2019-03-20T10:30:43.502Z,12.70
2019-03-20T10:33:11.952Z,13.30
2019-03-20T10:35:49.964Z,13.00
2019-03-20T10:38:10.564Z,12.70
2019-03-20T10:40:39.019Z,12.80
2019-03-20T10:43:07.517Z,12.70
2019-03-20T10:45:35.940Z,12.60
2019-03-20T10:48:04.392Z,12.80
2019-03-20T10:50:35.606Z,13.00
2019-03-20T10:53:04.047Z,13.30
2019-03-20T10:55:36.488Z,13.50
2019-03-20T10:58:04.920Z,13.40
2019-03-20T11:00:40.768Z,13.70
2019-03-20T11:03:09.351Z,14.00
2019-03-20T11:05:38.751Z,13.80
2019-03-20T11:08:07.185Z,13.50
2019-03-20T11:10:38.688Z,13.10
2019-03-20T11:13:07.196Z,12.90
2019-03-20T11:15:35.717Z,12.70
2019-03-20T11:18:04.182Z,12.60
2019-03-20T11:20:35.663Z,12.40
2019-03-20T11:23:04.257Z,12.50
2019-03-20T11:25:35.759Z,12.30
2019-03-20T11:28:04.266Z,12.20
2019-03-20T11:30:36.173Z,12.00
2019-03-20T11:33:04.823Z,11.80
2019-03-20T11:35:36.519Z,11.90
2019-03-20T11:38:05.075Z,11.90
2019-03-20T11:40:38.232Z,11.90
2019-03-20T11:43:06.736Z,11.80
2019-03-20T11:45:36.526Z,11.60
2019-03-20T11:48:05.108Z,11.70
2019-03-20T11:50:43.779Z,12.00
2019-03-20T11:53:12.301Z,11.90
2019-03-20T11:55:42.797Z,11.90
2019-03-20T11:58:11.351Z,12.00
2019-03-20T12:00:39.847Z,12.10
2019-03-20T12:03:08.563Z,12.10
2019-03-20T12:05:42.705Z,12.10
2019-03-20T12:08:11.186Z,12.00
2019-03-20T12:10:42.301Z,11.90
2019-03-20T12:13:10.755Z,11.90
2019-03-20T12:15:42.414Z,11.90
2019-03-20T12:18:10.846Z,11.90
2019-03-20T12:20:42.376Z,12.00
2019-03-20T12:23:10.890Z,11.90
2019-03-20T12:25:42.335Z,11.90
2019-03-20T12:28:10.804Z,12.00
2019-03-20T12:30:42.840Z,12.00
2019-03-20T12:33:11.355Z,12.00
2019-03-20T12:35:47.419Z,12.00
2019-03-20T12:38:18.941Z,12.10
2019-03-20T12:40:47.391Z,12.30
2019-03-20T12:43:18.789Z,12.30
2019-03-20T12:45:47.316Z,12.30
2019-03-20T12:48:18.266Z,12.10
2019-03-20T12:50:48.419Z,12.20
2019-03-20T12:53:20.299Z,12.20
2019-03-20T12:56:30.228Z,12.10
2019-03-20T12:59:01.768Z,12.20
2019-03-20T13:01:30.256Z,12.20
2019-03-20T13:04:01.450Z,12.10
2019-03-20T13:06:29.878Z,12.10
2019-03-20T13:08:58.323Z,12.00
2019-03-20T13:11:26.804Z,12.20
2019-03-20T13:13:55.235Z,12.40
2019-03-20T13:16:23.703Z,12.40
2019-03-20T13:18:54.767Z,12.50
2019-03-20T13:21:23.229Z,12.60
2019-03-20T13:23:54.642Z,12.80
2019-03-20T13:26:23.104Z,12.80
2019-03-20T13:28:55.581Z,12.70
2019-03-20T13:31:24.477Z,12.60
2019-03-20T13:33:56.078Z,12.70
2019-03-20T13:36:24.513Z,12.80
2019-03-20T13:38:53.185Z,12.80
2019-03-20T13:41:21.893Z,12.70
2019-03-20T13:43:50.315Z,12.70
2019-03-20T13:46:18.757Z,12.60
2019-03-20T13:48:47.212Z,12.50
2019-03-20T13:51:15.639Z,12.40
2019-03-20T13:53:46.987Z,12.40
2019-03-20T13:56:15.559Z,12.40
2019-03-20T13:58:46.694Z,12.50
2019-03-20T14:01:15.194Z,12.50
2019-03-20T14:03:44.290Z,12.70
2019-03-20T14:06:12.729Z,12.70
2019-03-20T14:08:44.118Z,12.70
2019-03-20T14:11:12.523Z,12.40
2019-03-20T14:13:44.081Z,12.40
2019-03-20T14:16:12.539Z,12.40
2019-03-20T14:18:43.669Z,12.40
2019-03-20T14:21:12.137Z,12.40
2019-03-20T14:23:40.584Z,12.40
2019-03-20T14:26:09.063Z,12.40
2019-03-20T14:28:37.536Z,12.50
2019-03-20T14:31:05.972Z,12.50
2019-03-20T14:33:35.583Z,12.50
2019-03-20T14:36:04.019Z,12.60
2019-03-20T14:38:35.223Z,12.70
2019-03-20T14:41:03.691Z,12.70
2019-03-20T14:43:33.375Z,12.70
2019-03-20T14:46:01.799Z,12.70
2019-03-20T14:48:32.948Z,12.60
2019-03-20T14:51:03.980Z,12.60
2019-03-20T14:53:32.599Z,12.60
2019-03-20T14:56:20.474Z,12.60
2019-03-20T14:58:49.047Z,12.70
2019-03-20T15:01:18.819Z,12.70
2019-03-20T15:03:48.839Z,12.70
2019-03-20T15:06:17.653Z,12.60
2019-03-20T15:09:38.153Z,12.50
2019-03-20T15:12:29.376Z,12.40
2019-03-20T15:15:14.941Z,12.40
2019-03-20T15:17:43.893Z,12.50
2019-03-20T15:23:13.841Z,12.60
2019-03-20T15:26:12.878Z,12.60
2019-03-20T15:28:45.282Z,12.60
2019-03-20T15:31:15.512Z,12.60
2019-03-20T15:33:45.913Z,12.60
2019-03-20T15:36:14.701Z,12.60
2019-03-20T15:38:45.104Z,12.60
2019-03-20T15:41:15.854Z,12.60
2019-03-20T15:43:44.899Z,12.60
2019-03-20T15:46:15.547Z,12.50
2019-03-20T15:48:44.542Z,12.60
2019-03-20T15:51:16.186Z,12.60
2019-03-20T15:53:44.629Z,12.60
2019-03-20T15:56:13.616Z,12.60
2019-03-20T15:58:44.315Z,12.60
2019-03-20T16:01:13.632Z,12.60
2019-03-20T16:03:44.469Z,12.60
2019-03-20T16:06:13.378Z,12.50
2019-03-20T16:08:44.257Z,12.60
2019-03-20T16:11:14.618Z,12.50
2019-03-20T16:13:44.065Z,12.60
2019-03-20T16:16:15.423Z,12.70
2019-03-20T16:18:44.330Z,12.70
2019-03-20T16:21:14.600Z,12.60
2019-03-20T16:23:43.627Z,12.40
2019-03-20T16:26:14.463Z,12.30
2019-03-20T16:28:44.078Z,12.40
2019-03-20T16:31:13.850Z,12.50
2019-03-20T16:33:56.206Z,12.50
2019-03-20T16:36:25.996Z,12.50
2019-03-20T16:38:56.339Z,12.50
2019-03-20T16:41:25.131Z,12.60
2019-03-20T16:43:53.687Z,12.70
2019-03-20T16:46:22.145Z,12.60
2019-03-20T16:48:50.564Z,12.40
2019-03-20T16:51:19.009Z,12.30
2019-03-20T16:53:47.572Z,12.20
2019-03-20T16:56:16.261Z,12.10
2019-03-20T16:58:45.061Z,12.00
2019-03-20T17:01:14.607Z,11.90
2019-03-20T17:04:08.251Z,11.80
2019-03-20T17:06:41.039Z,11.80
2019-03-20T17:09:13.659Z,11.70
2019-03-20T17:11:44.109Z,11.60
2019-03-20T17:14:17.837Z,11.50
2019-03-20T17:19:49.121Z,11.40
2019-03-20T17:22:17.660Z,11.40
2019-03-20T17:24:46.182Z,11.20
2019-03-20T17:27:14.776Z,11.20
2019-03-20T17:29:44.930Z,11.10
2019-03-20T17:32:15.882Z,11.00
2019-03-20T17:34:44.584Z,10.90
2019-03-20T17:37:14.948Z,10.80
2019-03-20T17:39:43.849Z,10.60
2019-03-20T17:42:13.735Z,10.50
2019-03-20T17:44:44.315Z,10.40
2019-03-20T17:47:13.571Z,10.30
2019-03-20T17:49:43.774Z,10.10
2019-03-20T17:52:14.560Z,10.10
2019-03-20T17:54:46.638Z,9.90
2019-03-20T17:57:15.071Z,9.80
2019-03-20T17:59:44.081Z,9.60
2019-03-20T18:02:23.426Z,9.50
2019-03-20T18:04:44.876Z,9.40
2019-03-20T18:08:06.847Z,9.20
2019-03-20T18:10:38.274Z,9.20
2019-03-20T18:13:12.370Z,9.00
2019-03-20T18:15:45.653Z,8.80
2019-03-20T18:18:14.765Z,8.60
2019-03-20T18:20:44.092Z,8.40
2019-03-20T18:23:14.442Z,8.30
2019-03-20T18:25:44.259Z,8.20
2019-03-20T18:28:17.694Z,8.20
2019-03-20T18:30:46.397Z,8.10
2019-03-20T18:33:15.052Z,8.00
2019-03-20T18:35:44.033Z,7.90
2019-03-20T18:38:13.161Z,7.80
2019-03-20T18:40:42.966Z,7.80
2019-03-20T18:43:12.960Z,7.70
2019-03-20T18:45:44.343Z,7.60
2019-03-20T18:48:13.718Z,7.40
2019-03-20T18:50:50.217Z,7.20
2019-03-20T18:53:18.799Z,7.10
2019-03-20T18:55:47.281Z,6.90
2019-03-20T18:58:15.761Z,6.80
2019-03-20T19:00:47.014Z,6.70
2019-03-20T19:03:21.385Z,6.70
2019-03-20T19:06:14.544Z,6.80
2019-03-20T19:08:44.521Z,6.70
2019-03-20T19:11:13.242Z,6.60
2019-03-20T19:13:43.601Z,6.50
2019-03-20T19:16:13.022Z,6.40
2019-03-20T19:18:43.837Z,6.30
2019-03-20T19:21:13.459Z,6.20
2019-03-20T19:23:43.743Z,6.00
2019-03-20T19:26:13.677Z,5.90
2019-03-20T19:28:44.028Z,5.80
2019-03-20T19:31:15.694Z,5.80
2019-03-20T19:33:45.520Z,5.70
2019-03-20T19:36:14.410Z,5.60
2019-03-20T19:38:44.752Z,5.50
2019-03-20T19:41:14.123Z,5.30
2019-03-20T19:43:44.349Z,5.20
2019-03-20T19:46:21.807Z,5.20
2019-03-20T19:48:50.380Z,5.10
2019-03-20T19:51:18.812Z,4.90
2019-03-20T19:54:09.323Z,4.80
2019-03-20T19:56:41.841Z,4.80
2019-03-20T19:59:13.042Z,4.70
2019-03-20T20:01:44.456Z,4.60
2019-03-20T20:04:14.838Z,4.60
2019-03-20T20:06:44.363Z,4.50
2019-03-20T20:09:14.335Z,4.40
2019-03-20T20:11:44.361Z,4.30
2019-03-20T20:14:14.061Z,4.20
2019-03-20T20:16:43.896Z,4.20
2019-03-20T20:19:15.323Z,4.10
2019-03-20T20:21:45.487Z,4.10
2019-03-20T20:24:15.007Z,4.00
2019-03-20T20:26:43.524Z,4.00
2019-03-20T20:29:16.056Z,3.90
2019-03-20T20:31:46.304Z,3.80
2019-03-20T20:34:15.285Z,3.80
2019-03-20T20:36:44.502Z,3.70
2019-03-20T20:39:14.486Z,3.60
2019-03-20T20:41:44.481Z,3.60
2019-03-20T20:44:14.246Z,3.50
2019-03-20T20:46:55.228Z,3.50
2019-03-20T20:49:23.693Z,3.40
2019-03-20T20:51:52.251Z,3.40
2019-03-20T20:54:20.673Z,3.30
2019-03-20T20:56:49.111Z,3.30
2019-03-20T20:59:17.508Z,3.20
2019-03-20T21:01:45.958Z,3.20
2019-03-20T21:04:14.652Z,3.10
2019-03-20T21:06:44.746Z,3.10
2019-03-20T21:09:14.113Z,3.10
2019-03-20T21:11:44.534Z,3.00
2019-03-20T21:14:15.276Z,3.00
2019-03-20T21:16:44.521Z,2.90
2019-03-20T21:19:22.464Z,2.90
2019-03-20T21:22:04.330Z,2.90
2019-03-20T21:24:37.780Z,2.80
2019-03-20T21:27:35.625Z,2.70
2019-03-20T21:30:24.796Z,2.70
2019-03-20T21:32:59.797Z,2.60
2019-03-20T21:35:59.232Z,2.50
2019-03-20T21:38:30.103Z,2.50
2019-03-20T21:41:20.113Z,2.50
2019-03-20T21:44:12.967Z,2.40
2019-03-20T21:47:07.912Z,2.30
2019-03-20T21:49:39.949Z,2.20
2019-03-20T21:52:12.174Z,2.20
2019-03-20T21:55:13.188Z,2.10
2019-03-20T21:57:47.624Z,2.10
2019-03-20T22:00:47.405Z,2.10
2019-03-20T22:03:16.008Z,2.10
2019-03-20T22:06:10.875Z,2.00
2019-03-20T22:08:43.671Z,2.00
2019-03-20T22:11:30.452Z,2.10
2019-03-20T22:14:12.203Z,2.10
2019-03-20T22:17:17.389Z,2.00
2019-03-20T22:19:48.923Z,1.90
2019-03-20T22:22:38.990Z,1.80
2019-03-20T22:25:45.776Z,1.80
2019-03-20T22:28:30.002Z,1.80
2019-03-20T22:31:00.737Z,1.80
2019-03-20T22:34:16.619Z,1.70
2019-03-20T22:36:45.321Z,1.70
2019-03-20T22:39:18.478Z,1.70
2019-03-20T22:42:00.784Z,1.60
2019-03-20T22:44:31.650Z,1.60
2019-03-20T22:47:38.873Z,1.50
2019-03-20T22:50:20.050Z,1.50
2019-03-20T22:52:54.285Z,1.50
2019-03-20T22:55:55.351Z,1.50
2019-03-20T22:58:43.238Z,1.40
2019-03-20T23:01:17.829Z,1.40
2019-03-20T23:04:13.996Z,1.20
2019-03-20T23:06:43.678Z,1.20
2019-03-20T23:09:13.720Z,1.20
2019-03-20T23:11:43.202Z,1.20
2019-03-20T23:14:14.107Z,1.10
2019-03-20T23:16:43.579Z,1.10
2019-03-20T23:19:14.666Z,1.00
2019-03-20T23:21:45.756Z,1.00
2019-03-20T23:24:14.589Z,0.90
2019-03-20T23:26:45.366Z,0.90
2019-03-20T23:29:14.214Z,0.90
2019-03-20T23:31:43.676Z,0.90
2019-03-20T23:34:14.507Z,0.90
2019-03-20T23:36:44.724Z,0.80
2019-03-20T23:39:14.938Z,0.80
2019-03-20T23:41:43.635Z,0.80
2019-03-20T23:44:15.451Z,0.70
2019-03-20T23:46:44.503Z,0.70
2019-03-20T23:49:18.901Z,0.60
2019-03-20T23:51:47.342Z,0.60
2019-03-20T23:54:18.140Z,0.50
2019-03-20T23:56:46.609Z,0.50
2019-03-20T23:59:15.299Z,0.40
